sensor_id;sensor_type;location;lat;lon;timestamp;pressure;altitude;pressure_sealevel;temperature;humidity
33454;BME280;39400;49.744;7.012;2023-05-11T00:00:11;95762.84;;;7.85;100.00
33454;BME280;39400;49.744;7.012;2023-05-11T00:02:36;95762.88;;;7.89;100.00
33454;BME280;39400;49.744;7.012;2023-05-11T00:05:01;95760.19;;;7.96;100.00
33454;BME280;39400;49.744;7.012;2023-05-11T00:07:27;95762.16;;;7.99;100.00
33454;BME280;39400;49.744;7.012;2023-05-11T00:09:52;95759.88;;;8.05;100.00
33454;BME280;39400;49.744;7.012;2023-05-11T00:12:18;95761.88;;;8.12;100.00
33454;BME280;39400;49.744;7.012;2023-05-11T00:14:44;95758.00;;;8.20;100.00
33454;BME280;39400;49.744;7.012;2023-05-11T00:17:09;95751.75;;;8.23;100.00
33454;BME280;39400;49.744;7.012;2023-05-11T00:19:35;95759.63;;;8.28;100.00
33454;BME280;39400;49.744;7.012;2023-05-11T00:22:00;95749.06;;;8.30;100.00
33454;BME280;39400;49.744;7.012;2023-05-11T00:24:25;95754.53;;;8.30;100.00
33454;BME280;39400;49.744;7.012;2023-05-11T00:26:51;95751.03;;;8.33;100.00
33454;BME280;39400;49.744;7.012;2023-05-11T00:29:16;95750.63;;;8.31;100.00
33454;BME280;39400;49.744;7.012;2023-05-11T00:31:42;95751.78;;;8.26;100.00
33454;BME280;39400;49.744;7.012;2023-05-11T00:34:07;95750.19;;;8.18;100.00
33454;BME280;39400;49.744;7.012;2023-05-11T00:36:32;95748.97;;;8.16;100.00
33454;BME280;39400;49.744;7.012;2023-05-11T00:38:58;95746.25;;;8.16;100.00
33454;BME280;39400;49.744;7.012;2023-05-11T00:41:24;95741.16;;;8.14;100.00
33454;BME280;39400;49.744;7.012;2023-05-11T00:43:49;95747.38;;;8.07;100.00
33454;BME280;39400;49.744;7.012;2023-05-11T00:46:15;95741.81;;;7.93;100.00
33454;BME280;39400;49.744;7.012;2023-05-11T00:48:40;95744.91;;;7.92;100.00
33454;BME280;39400;49.744;7.012;2023-05-11T00:51:06;95747.34;;;8.00;100.00
33454;BME280;39400;49.744;7.012;2023-05-11T00:53:32;95746.97;;;8.05;100.00
33454;BME280;39400;49.744;7.012;2023-05-11T00:55:57;95746.97;;;8.05;100.00
33454;BME280;39400;49.744;7.012;2023-05-11T00:58:23;95744.59;;;8.00;100.00
33454;BME280;39400;49.744;7.012;2023-05-11T01:00:49;95747.34;;;8.00;100.00
33454;BME280;39400;49.744;7.012;2023-05-11T01:03:15;95744.19;;;7.98;100.00
33454;BME280;39400;49.744;7.012;2023-05-11T01:05:56;95747.25;;;7.90;100.00
33454;BME280;39400;49.744;7.012;2023-05-11T01:08:37;95754.28;;;7.87;100.00
33454;BME280;39400;49.744;7.012;2023-05-11T01:11:12;95751.88;;;7.82;100.00
33454;BME280;39400;49.744;7.012;2023-05-11T01:13:54;95750.75;;;7.83;100.00
33454;BME280;39400;49.744;7.012;2023-05-11T01:16:22;95753.53;;;7.90;100.00
33454;BME280;39400;49.744;7.012;2023-05-11T01:18:59;95747.25;;;7.90;100.00
33454;BME280;39400;49.744;7.012;2023-05-11T01:21:30;95744.94;;;7.95;100.00
33454;BME280;39400;49.744;7.012;2023-05-11T01:24:19;95742.16;;;7.88;100.00
33454;BME280;39400;49.744;7.012;2023-05-11T01:27:05;95750.38;;;7.88;100.00
33454;BME280;39400;49.744;7.012;2023-05-11T01:29:40;95745.69;;;7.92;100.00
33454;BME280;39400;49.744;7.012;2023-05-11T01:32:14;95745.34;;;7.97;100.00
33454;BME280;39400;49.744;7.012;2023-05-11T01:34:42;95744.91;;;7.92;100.00
33454;BME280;39400;49.744;7.012;2023-05-11T01:37:16;95741.81;;;7.93;100.00
33454;BME280;39400;49.744;7.012;2023-05-11T01:39:51;95737.34;;;7.71;100.00
33454;BME280;39400;49.744;7.012;2023-05-11T01:42:20;95739.19;;;7.52;100.00
33454;BME280;39400;49.744;7.012;2023-05-11T01:44:49;95734.41;;;7.42;100.00
33454;BME280;39400;49.744;7.012;2023-05-11T01:47:16;95745.34;;;7.42;100.00
33454;BME280;39400;49.744;7.012;2023-05-11T01:49:44;95746.09;;;7.39;100.00
33454;BME280;39400;49.744;7.012;2023-05-11T01:52:12;95742.88;;;7.30;100.00
33454;BME280;39400;49.744;7.012;2023-05-11T01:54:39;95745.84;;;7.10;100.00
33454;BME280;39400;49.744;7.012;2023-05-11T01:57:06;95748.09;;;7.01;100.00
33454;BME280;39400;49.744;7.012;2023-05-11T01:59:34;95741.41;;;6.99;100.00
33454;BME280;39400;49.744;7.012;2023-05-11T02:02:01;95744.53;;;6.97;100.00
33454;BME280;39400;49.744;7.012;2023-05-11T02:04:28;95744.78;;;6.85;100.00
33454;BME280;39400;49.744;7.012;2023-05-11T02:06:55;95750.91;;;6.75;100.00
33454;BME280;39400;49.744;7.012;2023-05-11T02:09:23;95742.59;;;6.64;100.00
33454;BME280;39400;49.744;7.012;2023-05-11T02:11:50;95746.13;;;6.64;100.00
33454;BME280;39400;49.744;7.012;2023-05-11T02:14:17;95743.78;;;6.63;100.00
33454;BME280;39400;49.744;7.012;2023-05-11T02:16:45;95746.78;;;6.54;100.00
33454;BME280;39400;49.744;7.012;2023-05-11T02:19:13;95742.09;;;6.51;100.00
33454;BME280;39400;49.744;7.012;2023-05-11T02:21:40;95745.97;;;6.50;100.00
33454;BME280;39400;49.744;7.012;2023-05-11T02:24:07;95746.78;;;6.54;100.00
33454;BME280;39400;49.744;7.012;2023-05-11T02:26:34;95755.41;;;6.56;100.00
33454;BME280;39400;49.744;7.012;2023-05-11T02:29:00;95753.09;;;6.58;100.00
33454;BME280;39400;49.744;7.012;2023-05-11T02:31:31;95750.69;;;6.53;100.00
33454;BME280;39400;49.744;7.012;2023-05-11T02:34:06;95755.41;;;6.56;100.00
33454;BME280;39400;49.744;7.012;2023-05-11T02:36:34;95754.66;;;6.59;100.00
33454;BME280;39400;49.744;7.012;2023-05-11T02:39:07;95763.72;;;6.67;100.00
33454;BME280;39400;49.744;7.012;2023-05-11T02:41:38;95756.00;;;6.73;100.00
33454;BME280;39400;49.744;7.012;2023-05-11T02:44:07;95760.41;;;6.84;100.00
33454;BME280;39400;49.744;7.012;2023-05-11T02:46:37;95741.72;;;6.90;100.00
33454;BME280;39400;49.744;7.012;2023-05-11T02:49:06;95751.50;;;6.91;100.00
33454;BME280;39400;49.744;7.012;2023-05-11T02:51:35;95752.28;;;6.91;100.00
33454;BME280;39400;49.744;7.012;2023-05-11T02:54:01;95753.47;;;6.94;100.00
33454;BME280;39400;49.744;7.012;2023-05-11T02:56:30;95748.75;;;6.91;100.00
33454;BME280;39400;49.744;7.012;2023-05-11T02:58:56;95758.16;;;6.94;100.00
33454;BME280;39400;49.744;7.012;2023-05-11T03:01:24;95749.56;;;6.95;100.00
33454;BME280;39400;49.744;7.012;2023-05-11T03:03:50;95760.59;;;7.02;100.00
33454;BME280;39400;49.744;7.012;2023-05-11T03:06:16;95750.34;;;7.33;100.00
33454;BME280;39400;49.744;7.012;2023-05-11T03:08:42;95748.88;;;7.46;100.00
33454;BME280;39400;49.744;7.012;2023-05-11T03:11:08;95753.28;;;7.58;100.00
33454;BME280;39400;49.744;7.012;2023-05-11T03:13:34;95761.94;;;7.63;100.00
33454;BME280;39400;49.744;7.012;2023-05-11T03:16:02;95755.28;;;7.65;100.00
33454;BME280;39400;49.744;7.012;2023-05-11T03:18:32;95761.13;;;7.59;100.00
33454;BME280;39400;49.744;7.012;2023-05-11T03:20:59;95756.63;;;7.89;100.00
33454;BME280;39400;49.744;7.012;2023-05-11T03:23:25;95759.72;;;7.80;100.00
33454;BME280;39400;49.744;7.012;2023-05-11T03:25:52;95764.44;;;7.83;100.00
33454;BME280;39400;49.744;7.012;2023-05-11T03:28:18;95766.69;;;7.74;100.00
33454;BME280;39400;49.744;7.012;2023-05-11T03:30:54;95774.44;;;7.65;100.00
33454;BME280;39400;49.744;7.012;2023-05-11T03:33:19;95777.59;;;7.67;100.00
33454;BME280;39400;49.744;7.012;2023-05-11T03:35:47;95770.94;;;7.68;100.00
33454;BME280;39400;49.744;7.012;2023-05-11T03:38:22;95768.25;;;7.75;100.00
33454;BME280;39400;49.744;7.012;2023-05-11T03:40:51;95762.38;;;7.69;100.00
33454;BME280;39400;49.744;7.012;2023-05-11T03:43:19;95762.72;;;7.68;100.00
33454;BME280;39400;49.744;7.012;2023-05-11T03:45:49;95758.88;;;7.76;100.00
33454;BME280;39400;49.744;7.012;2023-05-11T03:48:15;95764.28;;;7.69;100.00
33454;BME280;39400;49.744;7.012;2023-05-11T03:50:42;95753.78;;;7.71;100.00
33454;BME280;39400;49.744;7.012;2023-05-11T03:53:08;95745.59;;;7.78;100.00
33454;BME280;39400;49.744;7.012;2023-05-11T03:55:34;95755.00;;;7.77;100.00
33454;BME280;39400;49.744;7.012;2023-05-11T03:58:00;95757.38;;;7.82;100.00
33454;BME280;39400;49.744;7.012;2023-05-11T04:00:25;95766.78;;;7.84;100.00
33454;BME280;39400;49.744;7.012;2023-05-11T04:02:51;95766.41;;;7.90;100.00
33454;BME280;39400;49.744;7.012;2023-05-11T04:05:18;95754.56;;;7.75;100.00
33454;BME280;39400;49.744;7.012;2023-05-11T04:07:44;95755.75;;;7.74;100.00
33454;BME280;39400;49.744;7.012;2023-05-11T04:10:10;95764.28;;;7.65;100.00
33454;BME280;39400;49.744;7.012;2023-05-11T04:12:35;95761.94;;;7.63;100.00
33454;BME280;39400;49.744;7.012;2023-05-11T04:15:01;95765.88;;;7.70;100.00
33454;BME280;39400;49.744;7.012;2023-05-11T04:17:26;95765.13;;;7.73;100.00
33454;BME280;39400;49.744;7.012;2023-05-11T04:19:51;95755.75;;;7.74;100.00
33454;BME280;39400;49.744;7.012;2023-05-11T04:22:17;95761.25;;;7.77;100.00
33454;BME280;39400;49.744;7.012;2023-05-11T04:24:42;95767.91;;;7.80;100.00
33454;BME280;39400;49.744;7.012;2023-05-11T04:27:07;95763.59;;;7.79;100.00
33454;BME280;39400;49.744;7.012;2023-05-11T04:29:32;95765.56;;;7.82;100.00
33454;BME280;39400;49.744;7.012;2023-05-11T04:31:58;95763.72;;;7.93;100.00
33454;BME280;39400;49.744;7.012;2023-05-11T04:34:25;95769.22;;;7.97;100.00
33454;BME280;39400;49.744;7.012;2023-05-11T04:36:50;95769.22;;;7.97;100.00
33454;BME280;39400;49.744;7.012;2023-05-11T04:39:17;95768.41;;;7.96;100.00
33454;BME280;39400;49.744;7.012;2023-05-11T04:41:42;95768.41;;;7.96;100.00
33454;BME280;39400;49.744;7.012;2023-05-11T04:44:08;95768.44;;;8.00;100.00
33454;BME280;39400;49.744;7.012;2023-05-11T04:46:34;95778.66;;;8.06;100.00
33454;BME280;39400;49.744;7.012;2023-05-11T04:49:00;95766.16;;;8.09;100.00
33454;BME280;39400;49.744;7.012;2023-05-11T04:51:28;95771.66;;;8.13;100.00
33454;BME280;39400;49.744;7.012;2023-05-11T04:53:53;95775.94;;;8.14;100.00
33454;BME280;39400;49.744;7.012;2023-05-11T04:56:19;95773.34;;;8.35;100.00
33454;BME280;39400;49.744;7.012;2023-05-11T04:58:44;95774.56;;;8.41;100.00
33454;BME280;39400;49.744;7.012;2023-05-11T05:01:09;95772.66;;;8.45;100.00
33454;BME280;39400;49.744;7.012;2023-05-11T05:03:35;95768.72;;;8.43;100.00
33454;BME280;39400;49.744;7.012;2023-05-11T05:06:00;95770.19;;;8.33;100.00
33454;BME280;39400;49.744;7.012;2023-05-11T05:08:25;95770.28;;;8.40;100.00
33454;BME280;39400;49.744;7.012;2023-05-11T05:10:51;95772.66;;;8.45;100.00
33454;BME280;39400;49.744;7.012;2023-05-11T05:13:16;95769.50;;;8.43;100.00
33454;BME280;39400;49.744;7.012;2023-05-11T05:15:42;95776.56;;;8.51;100.00
33454;BME280;39400;49.744;7.012;2023-05-11T05:18:08;95776.59;;;8.58;100.00
33454;BME280;39400;49.744;7.012;2023-05-11T05:20:34;95773.88;;;8.62;100.00
33454;BME280;39400;49.744;7.012;2023-05-11T05:23:00;95773.94;;;8.73;100.00
33454;BME280;39400;49.744;7.012;2023-05-11T05:25:26;95779.38;;;8.66;100.00
33454;BME280;39400;49.744;7.012;2023-05-11T05:27:51;95778.19;;;8.60;100.00
33454;BME280;39400;49.744;7.012;2023-05-11T05:30:18;95777.38;;;8.55;100.00
33454;BME280;39400;49.744;7.012;2023-05-11T05:32:44;95779.78;;;8.64;100.00
33454;BME280;39400;49.744;7.012;2023-05-11T05:35:09;95782.53;;;8.68;100.00
33454;BME280;39400;49.744;7.012;2023-05-11T05:37:35;95782.19;;;8.73;100.00
33454;BME280;39400;49.744;7.012;2023-05-11T05:40:00;95789.22;;;8.74;100.00
33454;BME280;39400;49.744;7.012;2023-05-11T05:42:26;95792.31;;;8.69;100.00
33454;BME280;39400;49.744;7.012;2023-05-11T05:44:51;95790.69;;;8.53;100.00
33454;BME280;39400;49.744;7.012;2023-05-11T05:47:18;95790.69;;;8.53;100.00
33454;BME280;39400;49.744;7.012;2023-05-11T05:49:43;95795.38;;;8.49;100.00
33454;BME280;39400;49.744;7.012;2023-05-11T05:52:08;95793.41;;;8.50;100.00
33454;BME280;39400;49.744;7.012;2023-05-11T05:54:34;95798.16;;;8.56;100.00
33454;BME280;39400;49.744;7.012;2023-05-11T05:56:59;95797.78;;;8.62;100.00
33454;BME280;39400;49.744;7.012;2023-05-11T05:59:25;95802.16;;;8.73;100.00
33454;BME280;39400;49.744;7.012;2023-05-11T06:01:54;95801.72;;;8.68;100.00
33454;BME280;39400;49.744;7.012;2023-05-11T06:04:22;95804.13;;;8.80;100.00
33454;BME280;39400;49.744;7.012;2023-05-11T06:06:47;95799.50;;;9.05;100.00
33454;BME280;39400;49.744;7.012;2023-05-11T06:09:12;95796.44;;;9.25;100.00
33454;BME280;39400;49.744;7.012;2023-05-11T06:11:38;95805.06;;;9.34;100.00
33454;BME280;39400;49.744;7.012;2023-05-11T06:14:03;95801.19;;;9.57;100.00
33454;BME280;39400;49.744;7.012;2023-05-11T06:16:29;95802.75;;;9.79;100.00
33454;BME280;39400;49.744;7.012;2023-05-11T06:18:54;95805.09;;;9.66;100.00
33454;BME280;39400;49.744;7.012;2023-05-11T06:21:19;95800.00;;;9.65;100.00
33454;BME280;39400;49.744;7.012;2023-05-11T06:23:45;95799.63;;;9.73;100.00
33454;BME280;39400;49.744;7.012;2023-05-11T06:26:10;95803.53;;;9.83;100.00
33454;BME280;39400;49.744;7.012;2023-05-11T06:28:36;95803.56;;;10.05;100.00
33454;BME280;39400;49.744;7.012;2023-05-11T06:31:05;95806.69;;;9.96;100.00
33454;BME280;39400;49.744;7.012;2023-05-11T06:33:33;95797.25;;;9.93;100.00
33454;BME280;39400;49.744;7.012;2023-05-11T06:36:04;95798.84;;;10.02;100.00
33454;BME280;39400;49.744;7.012;2023-05-11T06:38:30;95793.72;;;10.04;100.00
33454;BME280;39400;49.744;7.012;2023-05-11T06:40:55;95795.66;;;10.21;100.00
33454;BME280;39400;49.744;7.012;2023-05-11T06:43:20;95787.06;;;10.26;100.00
33454;BME280;39400;49.744;7.012;2023-05-11T06:45:47;95786.25;;;10.36;100.00
33454;BME280;39400;49.744;7.012;2023-05-11T06:48:15;95782.31;;;10.41;100.00
33454;BME280;39400;49.744;7.012;2023-05-11T06:50:41;95788.22;;;10.36;100.00
33454;BME280;39400;49.744;7.012;2023-05-11T06:53:09;95788.25;;;10.32;100.00
33454;BME280;39400;49.744;7.012;2023-05-11T06:55:34;95796.88;;;10.27;100.00
33454;BME280;39400;49.744;7.012;2023-05-11T06:58:00;95789.81;;;10.33;100.00
33454;BME280;39400;49.744;7.012;2023-05-11T07:00:25;95794.41;;;10.72;100.00
33454;BME280;39400;49.744;7.012;2023-05-11T07:02:50;95793.25;;;10.59;100.00
33454;BME280;39400;49.744;7.012;2023-05-11T07:05:16;95787.75;;;10.59;100.00
33454;BME280;39400;49.744;7.012;2023-05-11T07:07:41;95786.19;;;10.58;100.00
33454;BME280;39400;49.744;7.012;2023-05-11T07:10:07;95796.38;;;10.68;100.00
33454;BME280;39400;49.744;7.012;2023-05-11T07:12:32;95795.53;;;10.85;100.00
33454;BME280;39400;49.744;7.012;2023-05-11T07:14:58;95790.78;;;10.93;100.00
33454;BME280;39400;49.744;7.012;2023-05-11T07:17:23;95800.06;;;11.24;100.00
33454;BME280;39400;49.744;7.012;2023-05-11T07:19:48;95787.41;;;11.37;100.00
33454;BME280;39400;49.744;7.012;2023-05-11T07:22:14;95795.31;;;11.28;100.00
33454;BME280;39400;49.744;7.012;2023-05-11T07:24:39;95800.75;;;11.42;100.00
33454;BME280;39400;49.744;7.012;2023-05-11T07:27:04;95799.19;;;11.41;100.00
33454;BME280;39400;49.744;7.012;2023-05-11T07:29:30;95795.13;;;11.64;100.00
33454;BME280;39400;49.744;7.012;2023-05-11T07:31:55;95801.31;;;11.75;100.00
33454;BME280;39400;49.744;7.012;2023-05-11T07:34:20;95792.63;;;11.84;100.00
33454;BME280;39400;49.744;7.012;2023-05-11T07:36:45;95796.63;;;11.72;100.00
33454;BME280;39400;49.744;7.012;2023-05-11T07:39:11;95798.97;;;11.70;100.00
33454;BME280;39400;49.744;7.012;2023-05-11T07:41:36;95798.75;;;12.06;100.00
33454;BME280;39400;49.744;7.012;2023-05-11T07:44:02;95796.47;;;11.94;100.00
33454;BME280;39400;49.744;7.012;2023-05-11T07:46:27;95804.41;;;11.81;100.00
33454;BME280;39400;49.744;7.012;2023-05-11T07:48:53;95802.19;;;11.65;100.00
33454;BME280;39400;49.744;7.012;2023-05-11T07:51:18;95802.53;;;11.67;100.00
33454;BME280;39400;49.744;7.012;2023-05-11T07:53:43;95795.81;;;11.75;100.00
33454;BME280;39400;49.744;7.012;2023-05-11T07:56:09;95789.06;;;11.80;100.00
33454;BME280;39400;49.744;7.012;2023-05-11T07:58:34;95795.22;;;12.02;100.00
33454;BME280;39400;49.744;7.012;2023-05-11T08:00:59;95792.88;;;12.00;100.00
33454;BME280;39400;49.744;7.012;2023-05-11T08:03:24;95790.06;;;12.07;100.00
33454;BME280;39400;49.744;7.012;2023-05-11T08:05:50;95793.22;;;12.09;100.00
33454;BME280;39400;49.744;7.012;2023-05-11T08:08:15;95787.88;;;11.84;100.00
33454;BME280;39400;49.744;7.012;2023-05-11T08:10:41;95787.06;;;11.87;100.00
33454;BME280;39400;49.744;7.012;2023-05-11T08:13:06;95787.75;;;12.02;100.00
33454;BME280;39400;49.744;7.012;2023-05-11T08:15:31;95790.97;;;11.94;100.00
33454;BME280;39400;49.744;7.012;2023-05-11T08:17:57;95790.16;;;11.97;100.00
33454;BME280;39400;49.744;7.012;2023-05-11T08:20:22;95794.03;;;12.03;100.00
33454;BME280;39400;49.744;7.012;2023-05-11T08:22:47;95793.66;;;12.01;100.00
33454;BME280;39400;49.744;7.012;2023-05-11T08:25:13;95799.56;;;12.03;100.00
33454;BME280;39400;49.744;7.012;2023-05-11T08:27:38;95793.47;;;12.22;100.00
33454;BME280;39400;49.744;7.012;2023-05-11T08:30:04;95798.06;;;12.36;100.00
33454;BME280;39400;49.744;7.012;2023-05-11T08:32:29;95794.44;;;12.43;100.00
33454;BME280;39400;49.744;7.012;2023-05-11T08:34:55;95796.78;;;12.48;100.00
33454;BME280;39400;49.744;7.012;2023-05-11T08:37:21;95796.59;;;13.00;100.00
33454;BME280;39400;49.744;7.012;2023-05-11T08:39:46;95796.84;;;13.09;100.00
33454;BME280;39400;49.744;7.012;2023-05-11T08:42:14;95800.03;;;13.07;100.00
33454;BME280;39400;49.744;7.012;2023-05-11T08:44:41;95797.88;;;13.22;100.00
33454;BME280;39400;49.744;7.012;2023-05-11T08:47:07;95797.16;;;13.49;100.00
33454;BME280;39400;49.744;7.012;2023-05-11T08:49:33;95803.06;;;13.74;100.00
33454;BME280;39400;49.744;7.012;2023-05-11T08:52:03;95801.00;;;13.55;100.00
33454;BME280;39400;49.744;7.012;2023-05-11T08:54:29;95806.31;;;13.69;100.00
33454;BME280;39400;49.744;7.012;2023-05-11T08:56:55;95796.94;;;13.63;100.00
33454;BME280;39400;49.744;7.012;2023-05-11T08:59:21;95806.38;;;13.93;100.00
33454;BME280;39400;49.744;7.012;2023-05-11T09:01:49;95793.44;;;13.86;100.00
33454;BME280;39400;49.744;7.012;2023-05-11T09:04:16;95797.69;;;13.91;100.00
33454;BME280;39400;49.744;7.012;2023-05-11T09:06:41;95801.97;;;13.95;97.24
33454;BME280;39400;49.744;7.012;2023-05-11T09:09:07;95805.16;;;13.94;95.59
33454;BME280;39400;49.744;7.012;2023-05-11T09:11:32;95800.09;;;13.89;96.29
33454;BME280;39400;49.744;7.012;2023-05-11T09:13:58;95803.78;;;13.55;95.24
33454;BME280;39400;49.744;7.012;2023-05-11T09:16:23;95801.00;;;13.55;95.40
33454;BME280;39400;49.744;7.012;2023-05-11T09:18:50;95797.16;;;13.49;92.98
33454;BME280;39400;49.744;7.012;2023-05-11T09:21:17;95804.22;;;13.19;94.13
33454;BME280;39400;49.744;7.012;2023-05-11T09:23:43;95799.13;;;13.18;95.35
33454;BME280;39400;49.744;7.012;2023-05-11T09:26:15;95803.03;;;13.20;96.91
33454;BME280;39400;49.744;7.012;2023-05-11T09:28:52;95803.78;;;13.24;97.23
33454;BME280;39400;49.744;7.012;2023-05-11T09:36:35;95799.44;;;13.54;92.42
33454;BME280;39400;49.744;7.012;2023-05-11T09:39:01;95800.97;;;13.59;92.99
33454;BME280;39400;49.744;7.012;2023-05-11T09:41:27;95796.16;;;13.63;94.99
33454;BME280;39400;49.744;7.012;2023-05-11T09:43:52;95797.66;;;13.67;93.36
33454;BME280;39400;49.744;7.012;2023-05-11T09:46:20;95796.59;;;13.85;92.71
33454;BME280;39400;49.744;7.012;2023-05-11T09:48:57;95792.00;;;14.01;91.99
33454;BME280;39400;49.744;7.012;2023-05-11T09:51:30;95799.63;;;13.94;90.49
33454;BME280;39400;49.744;7.012;2023-05-11T09:53:57;95793.28;;;14.20;89.58
33454;BME280;39400;49.744;7.012;2023-05-11T09:56:22;95794.91;;;14.18;89.01
33454;BME280;39400;49.744;7.012;2023-05-11T09:58:48;95786.09;;;14.23;90.34
33454;BME280;39400;49.744;7.012;2023-05-11T10:01:15;95787.91;;;14.33;89.33
33454;BME280;39400;49.744;7.012;2023-05-11T10:03:49;95791.81;;;14.36;86.23
33454;BME280;39400;49.744;7.012;2023-05-11T10:06:14;95781.00;;;14.45;86.72
33454;BME280;39400;49.744;7.012;2023-05-11T10:08:40;95787.50;;;14.58;85.68
33454;BME280;39400;49.744;7.012;2023-05-11T10:11:06;95785.72;;;14.88;86.88
33454;BME280;39400;49.744;7.012;2023-05-11T10:13:32;95786.50;;;14.68;85.77
33454;BME280;39400;49.744;7.012;2023-05-11T10:16:02;95786.94;;;14.67;87.87
33454;BME280;39400;49.744;7.012;2023-05-11T10:18:30;95785.91;;;14.57;85.73
33454;BME280;39400;49.744;7.012;2023-05-11T10:20:56;95779.53;;;14.60;83.32
33454;BME280;39400;49.744;7.012;2023-05-11T10:23:21;95781.47;;;14.83;82.41
33454;BME280;39400;49.744;7.012;2023-05-11T10:25:48;95779.34;;;15.11;79.78
33454;BME280;39400;49.744;7.012;2023-05-11T10:28:14;95771.06;;;15.27;82.15
33454;BME280;39400;49.744;7.012;2023-05-11T10:30:40;95772.56;;;15.32;80.32
33454;BME280;39400;49.744;7.012;2023-05-11T10:33:07;95774.56;;;15.31;83.83
33454;BME280;39400;49.744;7.012;2023-05-11T10:35:35;95773.25;;;15.72;77.64
33454;BME280;39400;49.744;7.012;2023-05-11T10:38:02;95777.53;;;15.77;80.29
33454;BME280;39400;49.744;7.012;2023-05-11T10:40:27;95773.16;;;15.76;77.78
33454;BME280;39400;49.744;7.012;2023-05-11T10:54:32;95768.50;;;15.73;74.51
33454;BME280;39400;49.744;7.012;2023-05-11T10:57:11;95765.81;;;15.85;77.90
33454;BME280;39400;49.744;7.012;2023-05-11T11:02:30;95765.41;;;15.87;77.69
33454;BME280;39400;49.744;7.012;2023-05-11T11:04:55;95763.97;;;15.62;76.61
33454;BME280;39400;49.744;7.012;2023-05-11T11:07:21;95760.69;;;15.67;76.99
33454;BME280;39400;49.744;7.012;2023-05-11T11:09:57;95760.47;;;15.42;75.97
33454;BME280;39400;49.744;7.012;2023-05-11T11:12:23;95761.50;;;15.32;76.30
33454;BME280;39400;49.744;7.012;2023-05-11T11:17:23;95758.41;;;14.90;78.91
33454;BME280;39400;49.744;7.012;2023-05-11T11:19:48;95761.09;;;14.73;79.43
33454;BME280;39400;49.744;7.012;2023-05-11T11:25:01;95759.47;;;14.33;82.44
33454;BME280;39400;49.744;7.012;2023-05-11T11:30:24;95762.72;;;14.27;82.54
33454;BME280;39400;49.744;7.012;2023-05-11T11:32:55;95759.72;;;14.18;83.29
33454;BME280;39400;49.744;7.012;2023-05-11T11:38:10;95759.22;;;14.23;82.68
33454;BME280;39400;49.744;7.012;2023-05-11T11:40:46;95762.94;;;14.37;82.53
33454;BME280;39400;49.744;7.012;2023-05-11T11:43:16;95750.94;;;14.23;82.31
33454;BME280;39400;49.744;7.012;2023-05-11T11:48:28;95755.25;;;14.48;84.81
33454;BME280;39400;49.744;7.012;2023-05-11T11:56:00;95752.50;;;14.88;81.67
33454;BME280;39400;49.744;7.012;2023-05-11T12:01:19;95757.59;;;15.09;82.19
33454;BME280;39400;49.744;7.012;2023-05-11T12:03:47;95752.72;;;14.97;82.98
33454;BME280;39400;49.744;7.012;2023-05-11T12:06:20;95760.25;;;14.77;82.26
33454;BME280;39400;49.744;7.012;2023-05-11T12:08:45;95758.06;;;14.88;83.68
33454;BME280;39400;49.744;7.012;2023-05-11T12:11:15;95751.38;;;14.85;84.51
33454;BME280;39400;49.744;7.012;2023-05-11T12:13:42;95748.53;;;14.89;84.19
33454;BME280;39400;49.744;7.012;2023-05-11T12:18:37;95751.16;;;14.96;82.83
33454;BME280;39400;49.744;7.012;2023-05-11T12:21:03;95754.44;;;14.91;81.91
33454;BME280;39400;49.744;7.012;2023-05-11T12:23:29;95753.28;;;14.88;81.32
33454;BME280;39400;49.744;7.012;2023-05-11T12:26:02;95747.88;;;14.61;81.60
33454;BME280;39400;49.744;7.012;2023-05-11T12:28:27;95758.75;;;14.28;80.84
33454;BME280;39400;49.744;7.012;2023-05-11T12:30:56;95746.03;;;14.11;80.29
33454;BME280;39400;49.744;7.012;2023-05-11T12:33:22;95750.59;;;14.21;80.77
33454;BME280;39400;49.744;7.012;2023-05-11T12:35:54;95744.81;;;14.12;80.89
33454;BME280;39400;49.744;7.012;2023-05-11T12:38:20;95743.50;;;14.20;78.63
33454;BME280;39400;49.744;7.012;2023-05-11T12:40:54;95744.28;;;13.97;78.28
33454;BME280;39400;49.744;7.012;2023-05-11T12:43:21;95737.59;;;14.18;80.51
33454;BME280;39400;49.744;7.012;2023-05-11T12:45:47;95742.31;;;14.41;78.70
33454;BME280;39400;49.744;7.012;2023-05-11T12:48:13;95740.53;;;14.31;77.22
33454;BME280;39400;49.744;7.012;2023-05-11T12:50:44;95739.63;;;14.38;76.03
33454;BME280;39400;49.744;7.012;2023-05-11T12:53:17;95735.06;;;14.27;74.50
33454;BME280;39400;49.744;7.012;2023-05-11T12:55:44;95731.66;;;14.40;76.13
33454;BME280;39400;49.744;7.012;2023-05-11T12:58:11;95727.34;;;14.62;75.98
33454;BME280;39400;49.744;7.012;2023-05-11T13:00:52;95731.81;;;14.76;74.47
33454;BME280;39400;49.744;7.012;2023-05-11T13:03:22;95723.91;;;14.74;74.47
33454;BME280;39400;49.744;7.012;2023-05-11T13:05:48;95722.84;;;14.68;73.57
33454;BME280;39400;49.744;7.012;2023-05-11T13:08:13;95724.75;;;14.71;75.56
33454;BME280;39400;49.744;7.012;2023-05-11T13:10:39;95727.53;;;14.91;75.36
33454;BME280;39400;49.744;7.012;2023-05-11T13:13:04;95718.50;;;15.07;74.77
33454;BME280;39400;49.744;7.012;2023-05-11T13:15:29;95716.91;;;15.06;75.50
33454;BME280;39400;49.744;7.012;2023-05-11T13:18:00;95725.81;;;14.78;76.89
33454;BME280;39400;49.744;7.012;2023-05-11T13:20:32;95715.13;;;14.80;77.19
33454;BME280;39400;49.744;7.012;2023-05-11T13:23:14;95718.06;;;14.89;73.87
33454;BME280;39400;49.744;7.012;2023-05-11T13:28:12;95726.13;;;14.83;74.61
33454;BME280;39400;49.744;7.012;2023-05-11T13:30:38;95722.22;;;14.61;75.26
33454;BME280;39400;49.744;7.012;2023-05-11T13:33:03;95721.03;;;14.62;75.67
33454;BME280;39400;49.744;7.012;2023-05-11T13:35:29;95722.72;;;14.76;76.54
33454;BME280;39400;49.744;7.012;2023-05-11T13:37:54;95724.69;;;14.75;77.36
33454;BME280;39400;49.744;7.012;2023-05-11T13:40:20;95718.88;;;14.69;76.60
33454;BME280;39400;49.744;7.012;2023-05-11T13:42:45;95722.06;;;14.88;77.98